createdAt,value
2018-11-26T00:01:39.838Z,10.00
2018-11-26T00:04:08.229Z,10.17
2018-11-26T00:06:36.812Z,10.33
2018-11-26T00:09:06.674Z,10.20
2018-11-26T00:11:35.942Z,11.13
2018-11-26T00:14:04.572Z,11.20
2018-11-26T00:16:32.949Z,10.37
2018-11-26T00:19:01.474Z,10.07
2018-11-26T00:21:29.867Z,10.23
2018-11-26T00:23:58.234Z,10.60
2018-11-26T00:26:26.639Z,10.30
2018-11-26T00:28:55.219Z,10.93
2018-11-26T00:31:23.703Z,11.20
2018-11-26T00:33:52.091Z,11.00
2018-11-26T00:36:20.455Z,10.70
2018-11-26T00:38:49.036Z,9.73
2018-11-26T00:41:17.719Z,10.30
2018-11-26T00:43:46.198Z,10.73
2018-11-26T00:46:14.570Z,9.33
2018-11-26T00:48:42.969Z,9.33
2018-11-26T00:51:11.354Z,10.00
2018-11-26T00:53:39.738Z,10.33
2018-11-26T00:56:08.106Z,9.87
2018-11-26T00:58:36.683Z,10.13
2018-11-26T01:01:05.283Z,10.13
2018-11-26T01:03:33.839Z,10.00
2018-11-26T01:06:02.217Z,9.57
2018-11-26T01:08:30.879Z,9.20
2018-11-26T01:10:59.334Z,10.50
2018-11-26T01:13:27.711Z,10.13
2018-11-26T01:15:56.082Z,10.47
2018-11-26T01:18:24.464Z,9.73
2018-11-26T01:20:53.045Z,9.83
2018-11-26T01:23:21.716Z,10.47
2018-11-26T01:25:50.188Z,9.63
2018-11-26T01:28:18.557Z,9.10
2018-11-26T01:30:47.136Z,9.83
2018-11-26T01:33:15.824Z,8.97
2018-11-26T01:35:44.293Z,8.93
2018-11-26T01:38:12.666Z,9.53
2018-11-26T01:40:46.679Z,8.83
2018-11-26T01:43:15.059Z,9.37
2018-11-26T01:45:43.645Z,8.67
2018-11-26T01:48:12.127Z,8.80
2018-11-26T01:50:40.507Z,9.37
2018-11-26T01:53:08.883Z,9.47
2018-11-26T01:55:37.601Z,8.73
2018-11-26T01:58:06.279Z,8.80
2018-11-26T02:00:34.687Z,9.10
2018-11-26T02:03:03.336Z,9.27
2018-11-26T02:05:31.795Z,7.90
2018-11-26T02:08:00.179Z,8.93
2018-11-26T02:10:28.574Z,7.80
2018-11-26T02:12:56.947Z,9.37
2018-11-26T02:15:34.860Z,8.53
2018-11-26T02:18:03.223Z,10.60
2018-11-26T02:20:31.607Z,9.30
2018-11-26T02:23:00.016Z,9.40
2018-11-26T02:25:28.406Z,9.10
2018-11-26T02:27:56.779Z,9.57
2018-11-26T02:30:25.159Z,9.07
2018-11-26T02:32:53.530Z,9.83
2018-11-26T02:35:21.911Z,9.73
2018-11-26T02:37:51.752Z,9.83
2018-11-26T02:40:35.602Z,9.47
2018-11-26T02:43:04.001Z,9.97
2018-11-26T02:45:34.624Z,10.40
2018-11-26T02:48:03.094Z,10.30
2018-11-26T02:50:31.483Z,9.13
2018-11-26T02:52:59.869Z,9.60
2018-11-26T02:55:28.251Z,10.67
2018-11-26T02:57:56.659Z,10.33
2018-11-26T03:00:25.044Z,9.93
2018-11-26T03:02:53.402Z,11.20
2018-11-26T03:05:23.890Z,9.90
2018-11-26T03:07:52.339Z,10.67
2018-11-26T03:10:20.726Z,10.37
2018-11-26T03:12:49.123Z,11.57
2018-11-26T03:15:17.509Z,11.37
2018-11-26T03:17:45.867Z,10.23
2018-11-26T03:20:14.254Z,10.30
2018-11-26T03:22:42.638Z,10.93
2018-11-26T03:25:11.044Z,10.87
2018-11-26T03:27:39.872Z,10.30
2018-11-26T03:30:10.915Z,10.07
2018-11-26T03:32:39.509Z,10.60
2018-11-26T03:35:08.266Z,10.83
2018-11-26T03:37:36.640Z,9.73
2018-11-26T03:40:07.558Z,10.00
2018-11-26T03:42:35.942Z,9.47
2018-11-26T03:45:04.893Z,9.20
2018-11-26T03:47:33.267Z,10.20
2018-11-26T03:50:01.657Z,9.50
2018-11-26T03:52:30.029Z,9.00
2018-11-26T03:54:58.389Z,9.57
2018-11-26T03:57:26.775Z,9.20
2018-11-26T03:59:55.387Z,9.03
2018-11-26T04:02:23.849Z,9.27
2018-11-26T04:04:52.235Z,9.07
2018-11-26T04:07:20.615Z,8.60
2018-11-26T04:09:48.998Z,9.03
2018-11-26T04:12:17.451Z,8.07
2018-11-26T04:14:45.831Z,8.27
2018-11-26T04:17:14.218Z,7.60
2018-11-26T04:19:42.951Z,6.97
2018-11-26T04:22:11.775Z,7.00
2018-11-26T04:24:40.235Z,7.23
2018-11-26T04:27:08.627Z,6.33
2018-11-26T04:29:37.001Z,7.33
2018-11-26T04:32:05.405Z,6.73
2018-11-26T04:34:33.794Z,6.63
2018-11-26T04:37:02.175Z,6.23
2018-11-26T04:39:30.546Z,6.73
2018-11-26T04:41:58.938Z,6.67
2018-11-26T04:44:27.303Z,6.60
2018-11-26T04:46:55.677Z,7.13
2018-11-26T04:49:24.060Z,5.97
2018-11-26T04:51:52.437Z,6.17
2018-11-26T04:54:20.818Z,6.13
2018-11-26T04:56:49.223Z,6.43
2018-11-26T04:59:17.583Z,6.27
2018-11-26T05:01:45.983Z,6.30
2018-11-26T05:04:14.588Z,5.90
2018-11-26T05:06:43.268Z,5.47
2018-11-26T05:09:11.695Z,5.47
2018-11-26T05:11:40.083Z,5.10
2018-11-26T05:14:08.454Z,6.13
2018-11-26T05:16:37.041Z,6.10
2018-11-26T05:19:05.509Z,5.10
2018-11-26T05:21:33.886Z,5.13
2018-11-26T05:24:02.252Z,5.73
2018-11-26T05:26:30.862Z,5.50
2018-11-26T05:28:59.535Z,5.17
2018-11-26T05:31:28.002Z,5.03
2018-11-26T05:33:56.399Z,4.90
2018-11-26T05:36:24.781Z,9.40
2018-11-26T05:38:53.156Z,5.23
2018-11-26T05:41:21.547Z,4.33
2018-11-26T05:43:50.114Z,4.93
2018-11-26T05:46:18.811Z,4.40
2018-11-26T05:48:47.512Z,5.10
2018-11-26T05:51:16.007Z,5.17
2018-11-26T05:53:44.378Z,5.90
2018-11-26T05:56:12.883Z,5.07
2018-11-26T05:58:41.256Z,5.23
2018-11-26T06:01:09.707Z,4.80
2018-11-26T06:03:38.119Z,4.37
2018-11-26T06:06:06.488Z,4.73
2018-11-26T06:08:34.861Z,4.70
2018-11-26T06:11:03.240Z,4.73
2018-11-26T06:13:31.610Z,4.33
2018-11-26T06:15:59.983Z,4.10
2018-11-26T06:18:28.363Z,4.67
2018-11-26T06:20:57.497Z,4.10
2018-11-26T06:23:25.971Z,3.67
2018-11-26T06:25:54.363Z,4.13
2018-11-26T06:28:22.803Z,3.97
2018-11-26T06:30:51.375Z,4.20
2018-11-26T06:33:19.769Z,4.20
2018-11-26T06:35:48.135Z,4.40
2018-11-26T06:38:16.667Z,4.50
2018-11-26T06:40:45.547Z,4.53
2018-11-26T06:43:14.046Z,3.90
2018-11-26T06:45:42.516Z,4.57
2018-11-26T06:48:10.900Z,3.70
2018-11-26T06:50:39.259Z,4.20
2018-11-26T06:53:07.631Z,4.40
2018-11-26T06:55:36.077Z,3.70
2018-11-26T06:58:04.455Z,3.50
2018-11-26T07:00:33.031Z,4.10
2018-11-26T07:03:01.486Z,3.40
2018-11-26T07:05:29.889Z,3.63
2018-11-26T07:07:58.232Z,4.00
2018-11-26T07:10:26.883Z,3.80
2018-11-26T07:12:55.544Z,3.90
2018-11-26T07:15:24.017Z,4.33
2018-11-26T07:17:53.151Z,3.87
2018-11-26T07:20:21.702Z,4.00
2018-11-26T07:22:50.255Z,4.07
2018-11-26T07:25:19.602Z,3.90
2018-11-26T07:27:53.638Z,3.47
2018-11-26T07:30:22.766Z,3.60
2018-11-26T07:32:51.195Z,3.90
2018-11-26T07:35:20.159Z,3.53
2018-11-26T07:37:48.551Z,3.47
2018-11-26T07:40:18.468Z,4.00
2018-11-26T07:42:47.830Z,3.37
2018-11-26T07:45:16.182Z,3.77
2018-11-26T07:47:44.560Z,4.00
2018-11-26T07:50:13.463Z,4.27
2018-11-26T07:52:42.126Z,3.57
2018-11-26T07:55:19.594Z,4.17
2018-11-26T07:57:48.208Z,4.10
2018-11-26T08:00:17.374Z,4.30
2018-11-26T08:02:46.130Z,3.90
2018-11-26T08:05:16.155Z,4.17
2018-11-26T08:07:44.605Z,3.90
2018-11-26T08:10:13.650Z,3.80
2018-11-26T08:12:42.098Z,4.07
2018-11-26T08:15:13.038Z,3.90
2018-11-26T08:17:41.615Z,3.87
2018-11-26T08:20:10.114Z,4.00
2018-11-26T08:22:38.483Z,3.57
2018-11-26T08:25:10.263Z,4.70
2018-11-26T08:27:39.036Z,3.90
2018-11-26T08:30:11.896Z,3.80
2018-11-26T08:32:40.303Z,4.30
2018-11-26T08:35:09.536Z,4.70
2018-11-26T08:37:42.299Z,4.10
2018-11-26T08:40:10.976Z,4.33
2018-11-26T08:42:45.796Z,4.83
2018-11-26T08:45:24.939Z,4.00
2018-11-26T08:47:58.671Z,4.30
2018-11-26T08:50:28.277Z,4.80
2018-11-26T08:52:57.487Z,4.07
2018-11-26T08:55:26.320Z,4.30
2018-11-26T08:57:55.788Z,4.33
2018-11-26T09:00:26.494Z,4.77
2018-11-26T09:02:55.239Z,4.43
2018-11-26T09:05:29.162Z,4.63
2018-11-26T09:07:57.800Z,3.90
2018-11-26T09:10:26.334Z,4.30
2018-11-26T09:12:55.146Z,4.23
2018-11-26T09:15:24.760Z,4.67
2018-11-26T09:17:53.303Z,5.17
2018-11-26T09:20:21.943Z,4.27
2018-11-26T09:22:51.010Z,3.47
2018-11-26T09:25:19.746Z,4.20
2018-11-26T09:27:48.239Z,3.43
2018-11-26T09:30:16.767Z,3.83
2018-11-26T09:32:45.380Z,3.90
2018-11-26T09:35:15.388Z,3.70
2018-11-26T09:37:43.857Z,3.30
2018-11-26T09:40:14.763Z,3.47
2018-11-26T09:42:43.243Z,3.33
2018-11-26T09:45:13.113Z,3.63
2018-11-26T09:47:41.771Z,3.40
2018-11-26T09:50:10.935Z,3.90
2018-11-26T09:52:39.593Z,3.60
2018-11-26T09:55:08.420Z,3.93
2018-11-26T09:57:36.989Z,3.03
2018-11-26T10:00:11.986Z,2.65
2018-11-26T10:02:40.975Z,2.90
2018-11-26T10:05:11.183Z,2.63
2018-11-26T10:07:39.901Z,2.90
2018-11-26T10:10:08.819Z,2.73
2018-11-26T10:12:37.854Z,2.47
2018-11-26T10:15:15.017Z,2.50
2018-11-26T10:17:43.388Z,2.70
2018-11-26T10:20:12.275Z,2.57
2018-11-26T10:22:41.735Z,2.27
2018-11-26T10:25:25.258Z,1.97
2018-11-26T10:27:53.959Z,2.30
2018-11-26T10:30:23.605Z,2.10
2018-11-26T10:32:52.943Z,4.03
2018-11-26T10:35:22.030Z,2.57
2018-11-26T10:37:50.501Z,2.33
2018-11-26T10:40:19.618Z,1.80
2018-11-26T10:42:48.687Z,1.57
2018-11-26T10:45:26.427Z,1.40
2018-11-26T10:47:55.115Z,1.20
2018-11-26T10:50:25.303Z,1.80
2018-11-26T10:53:00.764Z,1.53
2018-11-26T10:55:31.520Z,1.17
2018-11-26T10:58:00.025Z,2.00
2018-11-26T11:00:34.006Z,1.90
2018-11-26T11:03:02.370Z,1.70
2018-11-26T11:05:30.989Z,1.67
2018-11-26T11:07:59.551Z,1.50
2018-11-26T11:10:30.720Z,1.70
2018-11-26T11:12:59.243Z,1.70
2018-11-26T11:15:27.839Z,1.40
2018-11-26T11:17:57.127Z,1.33
2018-11-26T11:20:27.139Z,1.13
2018-11-26T11:22:55.612Z,1.40
2018-11-26T11:25:24.503Z,1.23
2018-11-26T11:27:53.181Z,1.30
2018-11-26T11:30:22.424Z,1.70
2018-11-26T11:32:51.016Z,1.33
2018-11-26T11:35:19.895Z,1.40
2018-11-26T11:37:48.796Z,1.50
2018-11-26T11:40:20.620Z,1.70
2018-11-26T11:42:49.039Z,3.23
2018-11-26T11:45:17.947Z,2.37
2018-11-26T11:47:46.412Z,3.30
2018-11-26T11:50:16.152Z,6.00
2018-11-26T11:52:45.015Z,1.93
2018-11-26T11:55:16.490Z,2.50
2018-11-26T11:57:44.970Z,2.37
2018-11-26T12:00:50.363Z,2.37
2018-11-26T12:03:20.158Z,1.67
2018-11-26T12:05:48.654Z,1.30
2018-11-26T12:08:17.246Z,1.53
2018-11-26T12:10:45.958Z,1.67
2018-11-26T12:13:14.832Z,1.80
2018-11-26T12:15:46.956Z,1.77
2018-11-26T12:18:15.428Z,1.73
2018-11-26T12:20:44.016Z,2.10
2018-11-26T12:23:12.620Z,1.70
2018-11-26T12:25:40.999Z,1.43
2018-11-26T12:28:09.376Z,1.10
2018-11-26T12:30:39.682Z,1.20
2018-11-26T12:33:08.357Z,1.67
2018-11-26T12:35:37.030Z,1.50
2018-11-26T12:38:05.549Z,1.27
2018-11-26T12:40:34.274Z,1.60
2018-11-26T12:43:03.273Z,1.30
2018-11-26T12:45:32.719Z,1.50
2018-11-26T12:48:01.707Z,1.47
2018-11-26T12:50:31.259Z,1.40
2018-11-26T12:53:00.337Z,1.80
2018-11-26T12:55:29.593Z,2.00
2018-11-26T12:57:59.214Z,1.70
2018-11-26T13:00:28.874Z,2.00
2018-11-26T13:02:58.747Z,1.87
2018-11-26T13:05:27.151Z,1.60
2018-11-26T13:07:57.697Z,1.70
2018-11-26T13:10:26.743Z,1.63
2018-11-26T13:12:56.667Z,1.60
2018-11-26T13:15:26.780Z,1.53
2018-11-26T13:17:55.560Z,1.80
2018-11-26T13:20:26.709Z,1.90
2018-11-26T13:22:55.476Z,3.67
2018-11-26T13:25:26.471Z,2.17
2018-11-26T13:27:55.497Z,1.70
2018-11-26T13:30:27.585Z,2.03
2018-11-26T13:32:58.428Z,1.70
2018-11-26T13:35:27.824Z,2.13
2018-11-26T13:37:56.312Z,1.57
2018-11-26T13:40:24.908Z,2.00
2018-11-26T13:42:53.308Z,1.60
2018-11-26T13:45:23.212Z,1.80
2018-11-26T13:47:51.929Z,1.50
2018-11-26T13:50:25.126Z,2.03
2018-11-26T13:52:53.764Z,1.80
2018-11-26T13:55:24.496Z,1.90
2018-11-26T13:57:53.181Z,2.00
2018-11-26T14:00:21.679Z,2.23
2018-11-26T14:02:50.352Z,1.80
2018-11-26T14:05:19.235Z,1.90
2018-11-26T14:07:48.066Z,1.87
2018-11-26T14:10:17.063Z,2.23
2018-11-26T14:12:46.087Z,1.80
2018-11-26T14:15:14.688Z,2.40
2018-11-26T14:17:43.130Z,2.77
2018-11-26T14:20:14.412Z,2.53
2018-11-26T14:22:44.086Z,2.30
2018-11-26T14:25:17.619Z,2.13
2018-11-26T14:27:46.493Z,2.27
2018-11-26T14:30:22.686Z,2.10
2018-11-26T14:32:51.137Z,1.83
2018-11-26T14:35:20.533Z,2.07
2018-11-26T14:37:49.541Z,2.27
2018-11-26T14:40:19.581Z,2.00
2018-11-26T14:42:48.004Z,2.17
2018-11-26T14:45:16.401Z,2.10
2018-11-26T14:47:45.149Z,1.90
2018-11-26T14:50:13.948Z,1.83
2018-11-26T14:52:43.331Z,2.97
2018-11-26T14:55:16.308Z,3.93
2018-11-26T14:57:44.760Z,4.27
2018-11-26T15:00:14.140Z,4.10
2018-11-26T15:02:43.821Z,3.77
2018-11-26T15:05:11.921Z,4.03
2018-11-26T15:07:40.516Z,4.47
2018-11-26T15:10:09.588Z,4.53
2018-11-26T15:12:38.347Z,3.10
2018-11-26T15:15:07.792Z,2.63
2018-11-26T15:17:39.174Z,2.00
2018-11-26T15:20:10.552Z,2.00
2018-11-26T15:22:39.526Z,2.40
2018-11-26T15:25:10.833Z,2.30
2018-11-26T15:27:40.450Z,2.13
2018-11-26T15:30:10.589Z,2.07
2018-11-26T15:32:39.372Z,1.93
2018-11-26T15:35:09.089Z,2.10
2018-11-26T15:37:37.528Z,2.20
2018-11-26T15:40:06.260Z,3.37
2018-11-26T15:42:34.717Z,3.87
2018-11-26T15:45:03.821Z,3.80
2018-11-26T15:47:32.215Z,3.00
2018-11-26T15:50:00.593Z,3.00
2018-11-26T15:52:29.185Z,3.23
2018-11-26T15:54:57.660Z,2.50
2018-11-26T15:57:26.040Z,2.70
2018-11-26T15:59:54.763Z,3.10
2018-11-26T16:02:23.461Z,3.13
2018-11-26T16:04:57.251Z,2.73
2018-11-26T16:07:27.497Z,3.93
2018-11-26T16:09:55.864Z,4.27
2018-11-26T16:12:24.277Z,3.60
2018-11-26T16:14:52.683Z,3.30
2018-11-26T16:17:21.266Z,3.27
2018-11-26T16:19:49.748Z,3.30
2018-11-26T16:22:18.148Z,3.40
2018-11-26T16:24:46.529Z,3.30
2018-11-26T16:27:14.900Z,2.73
2018-11-26T16:29:43.333Z,3.10
2018-11-26T16:32:11.987Z,3.17
2018-11-26T16:34:40.511Z,3.10
2018-11-26T16:37:08.917Z,2.80
2018-11-26T16:39:37.324Z,2.90
2018-11-26T16:42:05.735Z,2.87
2018-11-26T16:44:34.427Z,2.50
2018-11-26T16:47:03.003Z,2.50
2018-11-26T16:49:31.601Z,3.15
2018-11-26T16:52:00.440Z,2.77
2018-11-26T16:54:28.924Z,3.80
2018-11-26T16:56:57.293Z,3.30
2018-11-26T16:59:25.677Z,3.00
2018-11-26T17:01:54.134Z,3.07
2018-11-26T17:04:22.534Z,3.00
2018-11-26T17:06:50.929Z,3.10
2018-11-26T17:09:19.601Z,3.00
2018-11-26T17:11:48.270Z,2.93
2018-11-26T17:14:17.404Z,3.13
2018-11-26T17:16:46.049Z,3.10
2018-11-26T17:19:14.606Z,4.57
2018-11-26T17:21:43.259Z,4.90
2018-11-26T17:24:12.030Z,6.20
2018-11-26T17:26:40.563Z,5.70
2018-11-26T17:29:09.066Z,7.03
2018-11-26T17:31:37.654Z,8.00
2018-11-26T17:34:06.160Z,7.43
2018-11-26T17:36:34.664Z,9.83
2018-11-26T17:39:03.164Z,10.90
2018-11-26T17:41:32.153Z,8.80
2018-11-26T17:44:00.759Z,10.10
2018-11-26T17:46:29.477Z,13.57
2018-11-26T17:48:58.072Z,10.43
2018-11-26T17:51:26.664Z,13.50
2018-11-26T17:53:55.141Z,15.13
2018-11-26T17:56:23.905Z,14.60
2018-11-26T17:58:52.553Z,18.70
2018-11-26T18:01:26.208Z,12.63
2018-11-26T18:03:54.684Z,12.50
2018-11-26T18:06:23.786Z,15.47
2018-11-26T18:08:51.873Z,11.97
2018-11-26T18:11:20.700Z,6.53
2018-11-26T18:13:49.504Z,6.63
2018-11-26T18:16:18.314Z,8.23
2018-11-26T18:18:46.900Z,10.03
2018-11-26T18:21:15.473Z,9.37
2018-11-26T18:23:44.285Z,6.57
2018-11-26T18:26:12.871Z,7.63
2018-11-26T18:28:41.329Z,5.80
2018-11-26T18:31:09.780Z,7.03
2018-11-26T18:33:38.541Z,7.00
2018-11-26T18:36:07.168Z,7.33
2018-11-26T18:38:35.705Z,6.97
2018-11-26T18:41:04.500Z,7.00
2018-11-26T18:43:33.461Z,6.40
2018-11-26T18:46:01.941Z,5.47
2018-11-26T18:48:30.405Z,4.30
2018-11-26T18:51:13.244Z,3.50
2018-11-26T18:53:41.827Z,3.90
2018-11-26T18:56:10.284Z,3.80
2018-11-26T18:58:38.785Z,4.30
2018-11-26T19:01:07.311Z,3.43
2018-11-26T19:03:36.053Z,3.33
2018-11-26T19:06:04.593Z,3.73
2018-11-26T19:08:33.071Z,4.10
2018-11-26T19:11:03.140Z,3.70
2018-11-26T19:13:33.932Z,3.23
2018-11-26T19:16:06.190Z,4.03
2018-11-26T19:18:34.648Z,3.90
2018-11-26T19:21:03.118Z,4.13
2018-11-26T19:23:31.562Z,4.90
2018-11-26T19:26:00.028Z,4.83
2018-11-26T19:28:28.635Z,4.83
2018-11-26T19:30:57.064Z,4.90
2018-11-26T19:33:25.548Z,4.73
2018-11-26T19:35:53.992Z,4.53
2018-11-26T19:38:22.441Z,5.00
2018-11-26T19:40:50.925Z,4.60
2018-11-26T19:43:19.398Z,4.57
2018-11-26T19:45:47.836Z,4.40
2018-11-26T19:48:16.305Z,4.40
2018-11-26T19:50:44.775Z,4.93
2018-11-26T19:53:13.223Z,5.03
2018-11-26T19:55:42.133Z,5.03
2018-11-26T19:58:10.584Z,4.20
2018-11-26T20:00:39.202Z,4.57
2018-11-26T20:03:08.893Z,4.53
2018-11-26T20:05:43.072Z,4.10
2018-11-26T20:08:11.538Z,4.57
2018-11-26T20:10:39.999Z,4.73
2018-11-26T20:13:08.447Z,4.57
2018-11-26T20:15:36.929Z,4.57
2018-11-26T20:18:05.796Z,3.43
2018-11-26T20:20:34.241Z,4.37
2018-11-26T20:23:02.705Z,3.80
2018-11-26T20:25:31.139Z,3.70
2018-11-26T20:27:59.601Z,2.83
2018-11-26T20:30:28.057Z,3.90
2018-11-26T20:32:56.504Z,4.23
2018-11-26T20:35:24.949Z,4.37
2018-11-26T20:37:53.636Z,4.80
2018-11-26T20:40:22.177Z,5.07
2018-11-26T20:42:51.537Z,5.00
2018-11-26T20:45:20.033Z,5.17
2018-11-26T20:47:49.656Z,4.57
2018-11-26T20:50:27.330Z,5.60
2018-11-26T20:52:55.885Z,6.20
2018-11-26T20:55:24.761Z,6.60
2018-11-26T20:57:53.898Z,7.27
2018-11-26T21:00:23.853Z,8.37
2018-11-26T21:02:53.037Z,7.67
2018-11-26T21:05:21.516Z,8.10
2018-11-26T21:07:50.032Z,7.43
2018-11-26T21:10:18.525Z,7.57
2018-11-26T21:12:47.019Z,8.37
2018-11-26T21:15:16.253Z,7.13
2018-11-26T21:17:48.281Z,6.43
2018-11-26T21:20:22.488Z,5.70
2018-11-26T21:22:50.988Z,5.30
2018-11-26T21:25:19.460Z,5.27
2018-11-26T21:27:48.197Z,5.10
2018-11-26T21:30:18.056Z,5.77
2018-11-26T21:32:46.537Z,5.20
2018-11-26T21:35:15.541Z,4.73
2018-11-26T21:37:45.532Z,5.60
2018-11-26T21:40:20.004Z,5.27
2018-11-26T21:42:43.058Z,5.30
2018-11-26T21:45:12.168Z,5.57
2018-11-26T21:47:40.905Z,5.50
2018-11-26T21:50:10.641Z,5.00
2018-11-26T21:52:39.204Z,5.20
2018-11-26T21:55:09.450Z,5.20
2018-11-26T21:57:37.967Z,5.37
2018-11-26T22:00:12.606Z,5.37
2018-11-26T22:02:41.390Z,4.67
2018-11-26T22:05:10.669Z,4.60
2018-11-26T22:07:39.249Z,4.50
2018-11-26T22:10:09.015Z,4.77
2018-11-26T22:12:37.497Z,4.10
2018-11-26T22:15:08.884Z,4.60
2018-11-26T22:17:37.674Z,4.30
2018-11-26T22:20:08.233Z,4.30
2018-11-26T22:22:36.722Z,4.67
2018-11-26T22:25:07.071Z,4.47
2018-11-26T22:27:35.893Z,4.53
2018-11-26T22:30:08.148Z,4.67
2018-11-26T22:32:36.640Z,4.20
2018-11-26T22:35:06.073Z,4.10
2018-11-26T22:37:34.540Z,4.43
2018-11-26T22:40:03.025Z,4.93
2018-11-26T22:42:31.472Z,5.03
2018-11-26T22:45:00.178Z,4.70
2018-11-26T22:47:28.712Z,5.60
2018-11-26T22:49:57.143Z,5.03
2018-11-26T22:52:25.611Z,5.70
2018-11-26T22:54:54.062Z,5.30
2018-11-26T22:57:22.504Z,5.27
2018-11-26T22:59:50.961Z,4.43
2018-11-26T23:02:19.415Z,4.70
2018-11-26T23:04:47.888Z,4.77
2018-11-26T23:07:16.373Z,4.70
2018-11-26T23:09:44.822Z,4.77
2018-11-26T23:12:13.268Z,4.50
2018-11-26T23:14:41.732Z,4.47
2018-11-26T23:17:10.188Z,4.30
2018-11-26T23:19:38.633Z,4.80
2018-11-26T23:22:07.093Z,4.53
2018-11-26T23:24:35.533Z,4.77
2018-11-26T23:27:04.481Z,4.50
2018-11-26T23:29:32.780Z,4.63
2018-11-26T23:32:01.239Z,4.80
2018-11-26T23:34:29.701Z,4.80
2018-11-26T23:36:58.148Z,4.77
2018-11-26T23:39:27.379Z,4.50
2018-11-26T23:41:55.040Z,4.50
2018-11-26T23:44:23.504Z,4.47
2018-11-26T23:46:51.944Z,4.13
2018-11-26T23:49:20.384Z,4.70
2018-11-26T23:51:48.844Z,4.53
2018-11-26T23:54:17.297Z,4.40
2018-11-26T23:56:45.744Z,4.53
2018-11-26T23:59:14.440Z,4.60
